sensor_id;sensor_type;location;lat;lon;timestamp;P1;durP1;ratioP1;P2;durP2;ratioP2
41201;SDS011;26936;50.524;8.684;2024-01-27T00:00:05;10.43;;;2.60;;
41201;SDS011;26936;50.524;8.684;2024-01-27T00:02:31;12.48;;;2.83;;
41201;SDS011;26936;50.524;8.684;2024-01-27T00:04:56;13.93;;;3.08;;
41201;SDS011;26936;50.524;8.684;2024-01-27T00:07:21;17.17;;;2.67;;
41201;SDS011;26936;50.524;8.684;2024-01-27T00:09:47;17.58;;;3.85;;
41201;SDS011;26936;50.524;8.684;2024-01-27T00:12:12;13.03;;;3.03;;
41201;SDS011;26936;50.524;8.684;2024-01-27T00:14:38;11.10;;;3.38;;
41201;SDS011;26936;50.524;8.684;2024-01-27T00:17:03;12.93;;;2.38;;
41201;SDS011;26936;50.524;8.684;2024-01-27T00:19:29;12.23;;;2.88;;
41201;SDS011;26936;50.524;8.684;2024-01-27T00:21:54;14.53;;;2.90;;
41201;SDS011;26936;50.524;8.684;2024-01-27T00:24:19;13.20;;;2.80;;
41201;SDS011;26936;50.524;8.684;2024-01-27T00:26:45;23.25;;;3.60;;
41201;SDS011;26936;50.524;8.684;2024-01-27T00:29:10;18.92;;;3.38;;
41201;SDS011;26936;50.524;8.684;2024-01-27T00:31:35;14.52;;;2.53;;
41201;SDS011;26936;50.524;8.684;2024-01-27T00:34:01;12.68;;;2.83;;
41201;SDS011;26936;50.524;8.684;2024-01-27T00:36:26;12.88;;;2.55;;
41201;SDS011;26936;50.524;8.684;2024-01-27T00:38:52;13.63;;;2.78;;
41201;SDS011;26936;50.524;8.684;2024-01-27T00:41:17;15.55;;;2.95;;
41201;SDS011;26936;50.524;8.684;2024-01-27T00:43:43;9.95;;;2.20;;
41201;SDS011;26936;50.524;8.684;2024-01-27T00:46:09;10.73;;;2.35;;
41201;SDS011;26936;50.524;8.684;2024-01-27T00:48:34;14.98;;;2.50;;
41201;SDS011;26936;50.524;8.684;2024-01-27T00:50:59;12.50;;;2.70;;
41201;SDS011;26936;50.524;8.684;2024-01-27T00:53:25;14.03;;;3.50;;
41201;SDS011;26936;50.524;8.684;2024-01-27T00:55:50;13.40;;;2.78;;
41201;SDS011;26936;50.524;8.684;2024-01-27T00:58:15;15.68;;;3.00;;
41201;SDS011;26936;50.524;8.684;2024-01-27T01:00:41;12.35;;;2.70;;
41201;SDS011;26936;50.524;8.684;2024-01-27T01:03:06;12.30;;;2.83;;
41201;SDS011;26936;50.524;8.684;2024-01-27T01:05:31;11.10;;;2.30;;
41201;SDS011;26936;50.524;8.684;2024-01-27T01:07:57;16.52;;;2.80;;
41201;SDS011;26936;50.524;8.684;2024-01-27T01:10:22;14.18;;;2.45;;
41201;SDS011;26936;50.524;8.684;2024-01-27T01:12:48;11.15;;;2.58;;
41201;SDS011;26936;50.524;8.684;2024-01-27T01:15:13;12.93;;;2.35;;
41201;SDS011;26936;50.524;8.684;2024-01-27T01:17:38;18.50;;;2.38;;
41201;SDS011;26936;50.524;8.684;2024-01-27T01:20:04;13.20;;;2.47;;
41201;SDS011;26936;50.524;8.684;2024-01-27T01:22:29;15.15;;;2.58;;
41201;SDS011;26936;50.524;8.684;2024-01-27T01:24:55;13.00;;;2.45;;
41201;SDS011;26936;50.524;8.684;2024-01-27T01:27:20;16.67;;;2.13;;
41201;SDS011;26936;50.524;8.684;2024-01-27T01:29:46;11.40;;;2.10;;
41201;SDS011;26936;50.524;8.684;2024-01-27T01:32:12;15.20;;;2.80;;
41201;SDS011;26936;50.524;8.684;2024-01-27T01:34:37;11.10;;;2.45;;
41201;SDS011;26936;50.524;8.684;2024-01-27T01:37:02;9.32;;;2.50;;
41201;SDS011;26936;50.524;8.684;2024-01-27T01:39:28;17.00;;;2.75;;
41201;SDS011;26936;50.524;8.684;2024-01-27T01:41:53;8.98;;;2.28;;
41201;SDS011;26936;50.524;8.684;2024-01-27T01:44:19;13.70;;;2.72;;
41201;SDS011;26936;50.524;8.684;2024-01-27T01:46:44;12.50;;;2.60;;
41201;SDS011;26936;50.524;8.684;2024-01-27T01:49:10;12.65;;;3.05;;
41201;SDS011;26936;50.524;8.684;2024-01-27T01:51:35;14.57;;;2.95;;
41201;SDS011;26936;50.524;8.684;2024-01-27T01:54:01;13.75;;;2.63;;
41201;SDS011;26936;50.524;8.684;2024-01-27T01:56:27;14.43;;;2.90;;
41201;SDS011;26936;50.524;8.684;2024-01-27T01:58:54;12.75;;;2.50;;
41201;SDS011;26936;50.524;8.684;2024-01-27T02:01:19;14.40;;;2.47;;
41201;SDS011;26936;50.524;8.684;2024-01-27T02:03:55;10.80;;;2.40;;
41201;SDS011;26936;50.524;8.684;2024-01-27T02:06:21;11.25;;;2.63;;
41201;SDS011;26936;50.524;8.684;2024-01-27T02:08:47;13.48;;;2.20;;
41201;SDS011;26936;50.524;8.684;2024-01-27T02:11:12;12.32;;;3.03;;
41201;SDS011;26936;50.524;8.684;2024-01-27T02:13:37;14.85;;;2.40;;
41201;SDS011;26936;50.524;8.684;2024-01-27T02:16:03;9.88;;;2.05;;
41201;SDS011;26936;50.524;8.684;2024-01-27T02:18:28;16.60;;;2.65;;
41201;SDS011;26936;50.524;8.684;2024-01-27T02:20:54;10.35;;;2.28;;
41201;SDS011;26936;50.524;8.684;2024-01-27T02:23:19;15.07;;;3.55;;
41201;SDS011;26936;50.524;8.684;2024-01-27T02:25:45;12.15;;;2.90;;
41201;SDS011;26936;50.524;8.684;2024-01-27T02:28:10;14.98;;;3.47;;
41201;SDS011;26936;50.524;8.684;2024-01-27T02:30:37;13.10;;;2.67;;
41201;SDS011;26936;50.524;8.684;2024-01-27T02:33:03;22.33;;;4.47;;
41201;SDS011;26936;50.524;8.684;2024-01-27T02:35:29;11.55;;;2.60;;
41201;SDS011;26936;50.524;8.684;2024-01-27T02:37:54;13.27;;;2.22;;
41201;SDS011;26936;50.524;8.684;2024-01-27T02:40:19;13.20;;;3.20;;
41201;SDS011;26936;50.524;8.684;2024-01-27T02:42:45;10.05;;;2.35;;
41201;SDS011;26936;50.524;8.684;2024-01-27T02:45:10;13.77;;;2.83;;
41201;SDS011;26936;50.524;8.684;2024-01-27T02:47:36;12.05;;;3.00;;
41201;SDS011;26936;50.524;8.684;2024-01-27T02:50:02;17.10;;;2.95;;
41201;SDS011;26936;50.524;8.684;2024-01-27T02:52:28;15.68;;;4.57;;
41201;SDS011;26936;50.524;8.684;2024-01-27T02:54:54;14.30;;;2.15;;
41201;SDS011;26936;50.524;8.684;2024-01-27T02:57:20;7.60;;;1.70;;
41201;SDS011;26936;50.524;8.684;2024-01-27T02:59:45;12.55;;;2.15;;
41201;SDS011;26936;50.524;8.684;2024-01-27T03:02:11;7.65;;;1.92;;
41201;SDS011;26936;50.524;8.684;2024-01-27T03:04:36;11.57;;;1.90;;
41201;SDS011;26936;50.524;8.684;2024-01-27T03:07:02;13.33;;;2.13;;
41201;SDS011;26936;50.524;8.684;2024-01-27T03:09:27;11.40;;;1.83;;
41201;SDS011;26936;50.524;8.684;2024-01-27T03:11:52;13.25;;;1.70;;
41201;SDS011;26936;50.524;8.684;2024-01-27T03:14:18;11.45;;;2.10;;
41201;SDS011;26936;50.524;8.684;2024-01-27T03:16:43;16.08;;;1.98;;
41201;SDS011;26936;50.524;8.684;2024-01-27T03:19:09;12.40;;;2.25;;
41201;SDS011;26936;50.524;8.684;2024-01-27T03:21:34;13.55;;;3.83;;
41201;SDS011;26936;50.524;8.684;2024-01-27T03:24:00;14.00;;;2.60;;
41201;SDS011;26936;50.524;8.684;2024-01-27T03:26:25;17.83;;;4.38;;
41201;SDS011;26936;50.524;8.684;2024-01-27T03:28:50;9.05;;;2.20;;
41201;SDS011;26936;50.524;8.684;2024-01-27T03:31:16;11.55;;;2.83;;
41201;SDS011;26936;50.524;8.684;2024-01-27T03:33:41;14.85;;;2.30;;
41201;SDS011;26936;50.524;8.684;2024-01-27T03:36:10;11.35;;;1.98;;
41201;SDS011;26936;50.524;8.684;2024-01-27T03:38:36;15.00;;;2.40;;
41201;SDS011;26936;50.524;8.684;2024-01-27T03:41:02;12.02;;;2.55;;
41201;SDS011;26936;50.524;8.684;2024-01-27T03:43:28;11.27;;;1.52;;
41201;SDS011;26936;50.524;8.684;2024-01-27T03:45:53;10.07;;;2.40;;
41201;SDS011;26936;50.524;8.684;2024-01-27T03:48:19;10.50;;;1.90;;
41201;SDS011;26936;50.524;8.684;2024-01-27T03:50:44;16.30;;;2.38;;
41201;SDS011;26936;50.524;8.684;2024-01-27T03:53:09;12.33;;;2.53;;
41201;SDS011;26936;50.524;8.684;2024-01-27T03:55:34;13.65;;;1.98;;
41201;SDS011;26936;50.524;8.684;2024-01-27T03:58:00;11.32;;;1.95;;
41201;SDS011;26936;50.524;8.684;2024-01-27T04:00:25;9.38;;;2.42;;
41201;SDS011;26936;50.524;8.684;2024-01-27T04:02:52;15.90;;;2.53;;
41201;SDS011;26936;50.524;8.684;2024-01-27T04:05:17;18.25;;;2.50;;
41201;SDS011;26936;50.524;8.684;2024-01-27T04:07:42;8.80;;;2.60;;
41201;SDS011;26936;50.524;8.684;2024-01-27T04:10:08;10.93;;;2.22;;
41201;SDS011;26936;50.524;8.684;2024-01-27T04:12:33;8.93;;;2.33;;
41201;SDS011;26936;50.524;8.684;2024-01-27T04:14:59;8.43;;;1.98;;
41201;SDS011;26936;50.524;8.684;2024-01-27T04:17:24;9.35;;;2.13;;
41201;SDS011;26936;50.524;8.684;2024-01-27T04:19:50;6.20;;;1.52;;
41201;SDS011;26936;50.524;8.684;2024-01-27T04:22:15;8.73;;;2.08;;
41201;SDS011;26936;50.524;8.684;2024-01-27T04:24:40;9.90;;;2.20;;
41201;SDS011;26936;50.524;8.684;2024-01-27T04:27:06;10.60;;;1.90;;
41201;SDS011;26936;50.524;8.684;2024-01-27T04:29:31;10.30;;;2.00;;
41201;SDS011;26936;50.524;8.684;2024-01-27T04:31:56;15.30;;;2.42;;
41201;SDS011;26936;50.524;8.684;2024-01-27T04:34:22;15.73;;;3.00;;
41201;SDS011;26936;50.524;8.684;2024-01-27T04:36:47;12.02;;;2.30;;
41201;SDS011;26936;50.524;8.684;2024-01-27T04:39:12;15.07;;;2.72;;
41201;SDS011;26936;50.524;8.684;2024-01-27T04:41:42;11.93;;;2.60;;
41201;SDS011;26936;50.524;8.684;2024-01-27T04:44:10;16.55;;;3.35;;
41201;SDS011;26936;50.524;8.684;2024-01-27T04:46:36;12.55;;;2.30;;
41201;SDS011;26936;50.524;8.684;2024-01-27T04:49:01;12.02;;;2.10;;
41201;SDS011;26936;50.524;8.684;2024-01-27T04:51:26;11.63;;;2.47;;
41201;SDS011;26936;50.524;8.684;2024-01-27T04:53:51;8.35;;;2.22;;
41201;SDS011;26936;50.524;8.684;2024-01-27T04:56:17;14.23;;;2.55;;
41201;SDS011;26936;50.524;8.684;2024-01-27T04:58:42;13.63;;;2.43;;
41201;SDS011;26936;50.524;8.684;2024-01-27T05:01:07;10.25;;;2.08;;
41201;SDS011;26936;50.524;8.684;2024-01-27T05:03:33;10.30;;;2.22;;
41201;SDS011;26936;50.524;8.684;2024-01-27T05:05:58;7.45;;;1.90;;
41201;SDS011;26936;50.524;8.684;2024-01-27T05:08:24;7.40;;;2.28;;
41201;SDS011;26936;50.524;8.684;2024-01-27T05:10:49;10.93;;;2.25;;
41201;SDS011;26936;50.524;8.684;2024-01-27T05:13:14;8.52;;;1.92;;
41201;SDS011;26936;50.524;8.684;2024-01-27T05:15:39;12.95;;;2.40;;
41201;SDS011;26936;50.524;8.684;2024-01-27T05:18:05;11.77;;;2.42;;
41201;SDS011;26936;50.524;8.684;2024-01-27T05:20:31;11.90;;;2.78;;
41201;SDS011;26936;50.524;8.684;2024-01-27T05:22:56;10.13;;;2.33;;
41201;SDS011;26936;50.524;8.684;2024-01-27T05:25:21;10.30;;;1.98;;
41201;SDS011;26936;50.524;8.684;2024-01-27T05:27:47;7.60;;;1.92;;
41201;SDS011;26936;50.524;8.684;2024-01-27T05:30:12;11.43;;;2.40;;
41201;SDS011;26936;50.524;8.684;2024-01-27T05:32:38;7.60;;;1.75;;
41201;SDS011;26936;50.524;8.684;2024-01-27T05:35:03;9.60;;;2.28;;
41201;SDS011;26936;50.524;8.684;2024-01-27T05:37:30;11.27;;;1.95;;
41201;SDS011;26936;50.524;8.684;2024-01-27T05:39:55;10.18;;;2.35;;
41201;SDS011;26936;50.524;8.684;2024-01-27T05:42:21;10.60;;;2.33;;
41201;SDS011;26936;50.524;8.684;2024-01-27T05:44:46;16.00;;;2.30;;
41201;SDS011;26936;50.524;8.684;2024-01-27T05:47:12;9.50;;;1.80;;
41201;SDS011;26936;50.524;8.684;2024-01-27T05:49:37;12.00;;;2.10;;
41201;SDS011;26936;50.524;8.684;2024-01-27T05:52:03;16.00;;;2.40;;
41201;SDS011;26936;50.524;8.684;2024-01-27T05:54:28;11.75;;;2.45;;
41201;SDS011;26936;50.524;8.684;2024-01-27T05:56:54;12.80;;;2.03;;
41201;SDS011;26936;50.524;8.684;2024-01-27T05:59:19;14.65;;;2.33;;
41201;SDS011;26936;50.524;8.684;2024-01-27T06:01:44;10.18;;;1.92;;
41201;SDS011;26936;50.524;8.684;2024-01-27T06:04:10;8.23;;;1.63;;
41201;SDS011;26936;50.524;8.684;2024-01-27T06:06:37;8.63;;;1.90;;
41201;SDS011;26936;50.524;8.684;2024-01-27T06:09:04;11.77;;;2.28;;
41201;SDS011;26936;50.524;8.684;2024-01-27T06:11:29;12.52;;;2.30;;
41201;SDS011;26936;50.524;8.684;2024-01-27T06:13:55;10.25;;;2.53;;
41201;SDS011;26936;50.524;8.684;2024-01-27T06:16:20;10.65;;;2.33;;
41201;SDS011;26936;50.524;8.684;2024-01-27T06:18:46;9.75;;;2.28;;
41201;SDS011;26936;50.524;8.684;2024-01-27T06:21:11;9.18;;;2.33;;
41201;SDS011;26936;50.524;8.684;2024-01-27T06:23:38;9.20;;;1.63;;
41201;SDS011;26936;50.524;8.684;2024-01-27T06:26:04;6.97;;;2.30;;
41201;SDS011;26936;50.524;8.684;2024-01-27T06:28:31;11.13;;;2.65;;
41201;SDS011;26936;50.524;8.684;2024-01-27T06:30:56;9.68;;;1.92;;
41201;SDS011;26936;50.524;8.684;2024-01-27T06:33:21;13.75;;;2.20;;
41201;SDS011;26936;50.524;8.684;2024-01-27T06:35:47;12.35;;;2.13;;
41201;SDS011;26936;50.524;8.684;2024-01-27T06:38:12;8.95;;;2.05;;
41201;SDS011;26936;50.524;8.684;2024-01-27T06:40:37;7.30;;;2.13;;
41201;SDS011;26936;50.524;8.684;2024-01-27T06:43:02;10.88;;;1.75;;
41201;SDS011;26936;50.524;8.684;2024-01-27T06:45:28;8.15;;;1.60;;
41201;SDS011;26936;50.524;8.684;2024-01-27T06:47:53;9.32;;;1.85;;
41201;SDS011;26936;50.524;8.684;2024-01-27T06:50:18;7.33;;;1.87;;
41201;SDS011;26936;50.524;8.684;2024-01-27T06:52:44;14.02;;;2.28;;
41201;SDS011;26936;50.524;8.684;2024-01-27T06:55:11;13.60;;;1.90;;
41201;SDS011;26936;50.524;8.684;2024-01-27T06:57:36;14.23;;;2.03;;
41201;SDS011;26936;50.524;8.684;2024-01-27T07:00:01;7.70;;;1.50;;
41201;SDS011;26936;50.524;8.684;2024-01-27T07:02:28;8.77;;;1.90;;
41201;SDS011;26936;50.524;8.684;2024-01-27T07:04:53;9.55;;;2.25;;
41201;SDS011;26936;50.524;8.684;2024-01-27T07:07:21;12.63;;;1.90;;
41201;SDS011;26936;50.524;8.684;2024-01-27T07:09:52;6.95;;;1.42;;
41201;SDS011;26936;50.524;8.684;2024-01-27T07:12:18;12.25;;;1.63;;
41201;SDS011;26936;50.524;8.684;2024-01-27T07:14:43;12.10;;;1.90;;
41201;SDS011;26936;50.524;8.684;2024-01-27T07:17:08;13.73;;;2.13;;
41201;SDS011;26936;50.524;8.684;2024-01-27T07:19:33;10.95;;;2.05;;
41201;SDS011;26936;50.524;8.684;2024-01-27T07:21:59;8.70;;;1.70;;
41201;SDS011;26936;50.524;8.684;2024-01-27T07:24:28;12.75;;;1.95;;
41201;SDS011;26936;50.524;8.684;2024-01-27T07:26:54;10.48;;;2.13;;
41201;SDS011;26936;50.524;8.684;2024-01-27T07:29:20;8.88;;;2.30;;
41201;SDS011;26936;50.524;8.684;2024-01-27T07:31:45;10.40;;;2.00;;
41201;SDS011;26936;50.524;8.684;2024-01-27T07:34:11;13.57;;;1.77;;
41201;SDS011;26936;50.524;8.684;2024-01-27T07:36:36;16.23;;;2.47;;
41201;SDS011;26936;50.524;8.684;2024-01-27T07:39:02;9.75;;;1.80;;
41201;SDS011;26936;50.524;8.684;2024-01-27T07:41:29;4.97;;;1.60;;
41201;SDS011;26936;50.524;8.684;2024-01-27T07:43:55;7.80;;;2.30;;
41201;SDS011;26936;50.524;8.684;2024-01-27T07:46:20;11.55;;;2.30;;
41201;SDS011;26936;50.524;8.684;2024-01-27T07:48:47;10.90;;;1.90;;
41201;SDS011;26936;50.524;8.684;2024-01-27T07:51:15;7.63;;;1.80;;
41201;SDS011;26936;50.524;8.684;2024-01-27T07:53:41;7.97;;;1.55;;
41201;SDS011;26936;50.524;8.684;2024-01-27T07:56:06;15.75;;;2.35;;
41201;SDS011;26936;50.524;8.684;2024-01-27T07:58:32;12.80;;;3.10;;
41201;SDS011;26936;50.524;8.684;2024-01-27T08:00:58;7.82;;;1.90;;
41201;SDS011;26936;50.524;8.684;2024-01-27T08:03:24;13.90;;;1.88;;
41201;SDS011;26936;50.524;8.684;2024-01-27T08:05:49;10.10;;;1.95;;
41201;SDS011;26936;50.524;8.684;2024-01-27T08:08:14;8.15;;;2.05;;
41201;SDS011;26936;50.524;8.684;2024-01-27T08:10:40;6.95;;;2.10;;
41201;SDS011;26936;50.524;8.684;2024-01-27T08:13:05;8.25;;;1.90;;
41201;SDS011;26936;50.524;8.684;2024-01-27T08:15:32;9.68;;;2.25;;
41201;SDS011;26936;50.524;8.684;2024-01-27T08:17:57;7.78;;;2.70;;
41201;SDS011;26936;50.524;8.684;2024-01-27T08:20:22;18.92;;;3.58;;
41201;SDS011;26936;50.524;8.684;2024-01-27T08:22:47;6.25;;;2.53;;
41201;SDS011;26936;50.524;8.684;2024-01-27T08:25:16;11.18;;;3.03;;
41201;SDS011;26936;50.524;8.684;2024-01-27T08:27:42;14.38;;;2.90;;
41201;SDS011;26936;50.524;8.684;2024-01-27T08:30:08;9.93;;;2.78;;
41201;SDS011;26936;50.524;8.684;2024-01-27T08:32:33;15.43;;;2.97;;
41201;SDS011;26936;50.524;8.684;2024-01-27T08:34:59;11.32;;;2.85;;
41201;SDS011;26936;50.524;8.684;2024-01-27T08:37:25;14.27;;;2.88;;
41201;SDS011;26936;50.524;8.684;2024-01-27T08:39:50;11.40;;;2.95;;
41201;SDS011;26936;50.524;8.684;2024-01-27T08:42:16;8.82;;;2.92;;
41201;SDS011;26936;50.524;8.684;2024-01-27T08:44:41;16.67;;;4.95;;
41201;SDS011;26936;50.524;8.684;2024-01-27T08:47:07;13.63;;;4.97;;
41201;SDS011;26936;50.524;8.684;2024-01-27T08:49:32;8.48;;;2.80;;
41201;SDS011;26936;50.524;8.684;2024-01-27T08:51:58;11.52;;;3.05;;
41201;SDS011;26936;50.524;8.684;2024-01-27T08:54:23;14.30;;;4.10;;
41201;SDS011;26936;50.524;8.684;2024-01-27T08:56:49;13.02;;;3.20;;
41201;SDS011;26936;50.524;8.684;2024-01-27T08:59:14;8.35;;;2.63;;
41201;SDS011;26936;50.524;8.684;2024-01-27T09:01:39;11.15;;;3.00;;
41201;SDS011;26936;50.524;8.684;2024-01-27T09:04:05;10.27;;;2.60;;
41201;SDS011;26936;50.524;8.684;2024-01-27T09:06:30;12.55;;;2.55;;
41201;SDS011;26936;50.524;8.684;2024-01-27T09:08:56;9.70;;;2.15;;
41201;SDS011;26936;50.524;8.684;2024-01-27T09:11:21;19.05;;;3.03;;
41201;SDS011;26936;50.524;8.684;2024-01-27T09:13:48;9.73;;;2.92;;
41201;SDS011;26936;50.524;8.684;2024-01-27T09:16:16;16.13;;;3.70;;
41201;SDS011;26936;50.524;8.684;2024-01-27T09:18:42;10.32;;;3.13;;
41201;SDS011;26936;50.524;8.684;2024-01-27T09:21:08;12.55;;;3.40;;
41201;SDS011;26936;50.524;8.684;2024-01-27T09:23:34;15.07;;;3.67;;
41201;SDS011;26936;50.524;8.684;2024-01-27T09:25:59;12.57;;;2.80;;
41201;SDS011;26936;50.524;8.684;2024-01-27T09:28:24;7.93;;;2.28;;
41201;SDS011;26936;50.524;8.684;2024-01-27T09:30:50;12.65;;;3.10;;
41201;SDS011;26936;50.524;8.684;2024-01-27T09:33:15;9.32;;;2.38;;
41201;SDS011;26936;50.524;8.684;2024-01-27T09:35:42;13.30;;;2.92;;
41201;SDS011;26936;50.524;8.684;2024-01-27T09:38:07;18.80;;;2.90;;
41201;SDS011;26936;50.524;8.684;2024-01-27T09:40:35;20.65;;;3.35;;
41201;SDS011;26936;50.524;8.684;2024-01-27T09:43:00;12.30;;;2.63;;
41201;SDS011;26936;50.524;8.684;2024-01-27T09:45:26;11.40;;;3.30;;
41201;SDS011;26936;50.524;8.684;2024-01-27T09:47:51;11.02;;;3.53;;
41201;SDS011;26936;50.524;8.684;2024-01-27T09:50:17;18.75;;;3.72;;
41201;SDS011;26936;50.524;8.684;2024-01-27T09:52:43;15.15;;;3.47;;
41201;SDS011;26936;50.524;8.684;2024-01-27T09:55:09;12.13;;;3.85;;
41201;SDS011;26936;50.524;8.684;2024-01-27T09:57:36;16.70;;;3.55;;
41201;SDS011;26936;50.524;8.684;2024-01-27T10:00:03;14.63;;;3.78;;
41201;SDS011;26936;50.524;8.684;2024-01-27T10:02:31;10.88;;;3.03;;
41201;SDS011;26936;50.524;8.684;2024-01-27T10:04:57;11.65;;;3.42;;
41201;SDS011;26936;50.524;8.684;2024-01-27T10:07:24;10.57;;;3.40;;
41201;SDS011;26936;50.524;8.684;2024-01-27T10:09:49;12.20;;;3.60;;
41201;SDS011;26936;50.524;8.684;2024-01-27T10:12:15;11.13;;;3.95;;
41201;SDS011;26936;50.524;8.684;2024-01-27T10:14:42;11.52;;;3.30;;
41201;SDS011;26936;50.524;8.684;2024-01-27T10:17:10;17.52;;;3.85;;
41201;SDS011;26936;50.524;8.684;2024-01-27T10:19:36;11.07;;;3.42;;
41201;SDS011;26936;50.524;8.684;2024-01-27T10:22:02;14.98;;;3.42;;
41201;SDS011;26936;50.524;8.684;2024-01-27T10:24:28;22.70;;;4.10;;
41201;SDS011;26936;50.524;8.684;2024-01-27T10:27:03;14.63;;;5.10;;
41201;SDS011;26936;50.524;8.684;2024-01-27T10:29:30;16.10;;;3.58;;
41201;SDS011;26936;50.524;8.684;2024-01-27T10:31:55;11.85;;;4.20;;
41201;SDS011;26936;50.524;8.684;2024-01-27T10:34:32;12.48;;;2.75;;
41201;SDS011;26936;50.524;8.684;2024-01-27T10:36:57;13.57;;;3.03;;
41201;SDS011;26936;50.524;8.684;2024-01-27T10:39:22;15.47;;;3.23;;
41201;SDS011;26936;50.524;8.684;2024-01-27T10:41:49;13.55;;;2.85;;
41201;SDS011;26936;50.524;8.684;2024-01-27T10:44:16;14.43;;;3.33;;
41201;SDS011;26936;50.524;8.684;2024-01-27T10:46:43;15.50;;;3.50;;
41201;SDS011;26936;50.524;8.684;2024-01-27T10:49:17;13.70;;;3.08;;
41201;SDS011;26936;50.524;8.684;2024-01-27T10:51:43;12.65;;;2.63;;
41201;SDS011;26936;50.524;8.684;2024-01-27T10:54:13;12.82;;;2.90;;
41201;SDS011;26936;50.524;8.684;2024-01-27T10:56:43;11.65;;;3.05;;
41201;SDS011;26936;50.524;8.684;2024-01-27T10:59:10;22.48;;;4.43;;
41201;SDS011;26936;50.524;8.684;2024-01-27T11:01:38;12.98;;;3.38;;
41201;SDS011;26936;50.524;8.684;2024-01-27T11:04:05;14.10;;;3.15;;
41201;SDS011;26936;50.524;8.684;2024-01-27T11:06:32;9.45;;;3.75;;
41201;SDS011;26936;50.524;8.684;2024-01-27T11:08:59;9.02;;;3.47;;
41201;SDS011;26936;50.524;8.684;2024-01-27T11:11:29;14.40;;;4.70;;
41201;SDS011;26936;50.524;8.684;2024-01-27T11:13:54;14.80;;;3.60;;
41201;SDS011;26936;50.524;8.684;2024-01-27T11:16:20;16.17;;;4.35;;
41201;SDS011;26936;50.524;8.684;2024-01-27T11:18:46;14.82;;;3.38;;
41201;SDS011;26936;50.524;8.684;2024-01-27T11:21:13;11.05;;;2.60;;
41201;SDS011;26936;50.524;8.684;2024-01-27T11:23:40;11.77;;;2.70;;
41201;SDS011;26936;50.524;8.684;2024-01-27T11:26:06;16.08;;;3.00;;
41201;SDS011;26936;50.524;8.684;2024-01-27T11:28:32;13.48;;;3.22;;
41201;SDS011;26936;50.524;8.684;2024-01-27T11:30:58;13.60;;;2.92;;
41201;SDS011;26936;50.524;8.684;2024-01-27T11:33:26;16.13;;;3.65;;
41201;SDS011;26936;50.524;8.684;2024-01-27T11:36:04;15.75;;;3.42;;
41201;SDS011;26936;50.524;8.684;2024-01-27T11:38:30;13.50;;;5.32;;
41201;SDS011;26936;50.524;8.684;2024-01-27T11:40:57;12.15;;;3.65;;
41201;SDS011;26936;50.524;8.684;2024-01-27T11:43:24;16.25;;;3.55;;
41201;SDS011;26936;50.524;8.684;2024-01-27T11:45:57;12.88;;;3.38;;
41201;SDS011;26936;50.524;8.684;2024-01-27T11:48:23;13.98;;;3.65;;
41201;SDS011;26936;50.524;8.684;2024-01-27T11:50:48;13.18;;;3.70;;
41201;SDS011;26936;50.524;8.684;2024-01-27T11:53:14;14.25;;;4.15;;
41201;SDS011;26936;50.524;8.684;2024-01-27T11:55:39;12.77;;;3.10;;
41201;SDS011;26936;50.524;8.684;2024-01-27T11:58:04;12.63;;;3.10;;
41201;SDS011;26936;50.524;8.684;2024-01-27T12:00:30;13.60;;;3.10;;
41201;SDS011;26936;50.524;8.684;2024-01-27T12:02:55;17.05;;;2.97;;
41201;SDS011;26936;50.524;8.684;2024-01-27T12:05:21;13.43;;;2.85;;
41201;SDS011;26936;50.524;8.684;2024-01-27T12:07:46;16.38;;;2.63;;
41201;SDS011;26936;50.524;8.684;2024-01-27T12:10:12;19.42;;;2.72;;
41201;SDS011;26936;50.524;8.684;2024-01-27T12:12:37;10.70;;;2.50;;
41201;SDS011;26936;50.524;8.684;2024-01-27T12:15:02;17.02;;;2.58;;
41201;SDS011;26936;50.524;8.684;2024-01-27T12:17:28;12.52;;;2.10;;
41201;SDS011;26936;50.524;8.684;2024-01-27T12:19:53;12.10;;;2.40;;
41201;SDS011;26936;50.524;8.684;2024-01-27T12:24:47;15.25;;;2.15;;
41201;SDS011;26936;50.524;8.684;2024-01-27T12:27:13;11.38;;;2.15;;
41201;SDS011;26936;50.524;8.684;2024-01-27T12:29:40;14.63;;;2.10;;
41201;SDS011;26936;50.524;8.684;2024-01-27T12:32:06;11.68;;;2.00;;
41201;SDS011;26936;50.524;8.684;2024-01-27T12:34:32;15.23;;;2.53;;
41201;SDS011;26936;50.524;8.684;2024-01-27T12:36:58;16.02;;;2.30;;
41201;SDS011;26936;50.524;8.684;2024-01-27T12:39:23;8.57;;;1.85;;
41201;SDS011;26936;50.524;8.684;2024-01-27T12:41:48;8.10;;;2.63;;
41201;SDS011;26936;50.524;8.684;2024-01-27T12:44:14;10.07;;;1.75;;
41201;SDS011;26936;50.524;8.684;2024-01-27T12:46:39;15.95;;;1.80;;
41201;SDS011;26936;50.524;8.684;2024-01-27T12:49:05;11.30;;;3.10;;
41201;SDS011;26936;50.524;8.684;2024-01-27T12:51:30;12.95;;;3.70;;
41201;SDS011;26936;50.524;8.684;2024-01-27T12:53:55;14.88;;;4.40;;
41201;SDS011;26936;50.524;8.684;2024-01-27T12:56:21;18.35;;;3.97;;
41201;SDS011;26936;50.524;8.684;2024-01-27T12:58:48;17.75;;;4.72;;
41201;SDS011;26936;50.524;8.684;2024-01-27T13:01:13;10.30;;;3.80;;
41201;SDS011;26936;50.524;8.684;2024-01-27T13:03:38;13.73;;;4.22;;
41201;SDS011;26936;50.524;8.684;2024-01-27T13:06:04;15.77;;;4.10;;
41201;SDS011;26936;50.524;8.684;2024-01-27T13:08:29;13.23;;;4.47;;
41201;SDS011;26936;50.524;8.684;2024-01-27T13:10:55;14.60;;;3.50;;
41201;SDS011;26936;50.524;8.684;2024-01-27T13:13:20;12.45;;;3.95;;
41201;SDS011;26936;50.524;8.684;2024-01-27T13:15:46;17.08;;;4.18;;
41201;SDS011;26936;50.524;8.684;2024-01-27T13:18:11;15.82;;;3.70;;
41201;SDS011;26936;50.524;8.684;2024-01-27T13:20:37;17.80;;;4.35;;
41201;SDS011;26936;50.524;8.684;2024-01-27T13:23:02;11.23;;;3.90;;
41201;SDS011;26936;50.524;8.684;2024-01-27T13:25:28;17.10;;;3.92;;
41201;SDS011;26936;50.524;8.684;2024-01-27T13:27:53;16.38;;;3.67;;
41201;SDS011;26936;50.524;8.684;2024-01-27T13:30:18;12.45;;;3.38;;
41201;SDS011;26936;50.524;8.684;2024-01-27T13:32:44;11.75;;;2.70;;
41201;SDS011;26936;50.524;8.684;2024-01-27T13:35:09;10.88;;;3.85;;
41201;SDS011;26936;50.524;8.684;2024-01-27T13:37:35;10.20;;;2.80;;
41201;SDS011;26936;50.524;8.684;2024-01-27T13:40:01;12.52;;;3.28;;
41201;SDS011;26936;50.524;8.684;2024-01-27T13:42:28;18.30;;;3.88;;
41201;SDS011;26936;50.524;8.684;2024-01-27T13:44:53;13.60;;;4.20;;
41201;SDS011;26936;50.524;8.684;2024-01-27T13:47:18;12.32;;;3.33;;
41201;SDS011;26936;50.524;8.684;2024-01-27T13:49:44;10.93;;;3.40;;
41201;SDS011;26936;50.524;8.684;2024-01-27T13:52:09;11.48;;;3.15;;
41201;SDS011;26936;50.524;8.684;2024-01-27T13:54:36;12.63;;;3.67;;
41201;SDS011;26936;50.524;8.684;2024-01-27T13:57:02;11.65;;;2.88;;
41201;SDS011;26936;50.524;8.684;2024-01-27T13:59:28;16.95;;;3.40;;
41201;SDS011;26936;50.524;8.684;2024-01-27T14:01:54;14.38;;;3.67;;
41201;SDS011;26936;50.524;8.684;2024-01-27T14:04:20;14.88;;;3.90;;
41201;SDS011;26936;50.524;8.684;2024-01-27T14:06:45;10.52;;;3.25;;
41201;SDS011;26936;50.524;8.684;2024-01-27T14:09:11;15.45;;;3.17;;
41201;SDS011;26936;50.524;8.684;2024-01-27T14:11:38;8.57;;;3.13;;
41201;SDS011;26936;50.524;8.684;2024-01-27T14:14:04;12.68;;;3.55;;
41201;SDS011;26936;50.524;8.684;2024-01-27T14:16:29;11.15;;;3.13;;
41201;SDS011;26936;50.524;8.684;2024-01-27T14:18:54;16.23;;;3.53;;
41201;SDS011;26936;50.524;8.684;2024-01-27T14:21:20;11.55;;;3.25;;
41201;SDS011;26936;50.524;8.684;2024-01-27T14:23:45;12.50;;;3.22;;
41201;SDS011;26936;50.524;8.684;2024-01-27T14:26:10;14.00;;;3.90;;
41201;SDS011;26936;50.524;8.684;2024-01-27T14:28:42;11.02;;;3.72;;